Time;durP1;ratioP1;P1;durP2;ratioP2;P2;SDS_P1;SDS_P2;PMS_P1;PMS_P2;Temp;Humidity;BMP_temperature;BMP_pressure;BME280_temperature;BME280_humidity;BME280_pressure;Samples;Min_cycle;Max_cycle;Signal;HPM_P1;HPM_P2
2021/04/18 00:00:57;;;;;;;47.17;27.77;;;;;;;6.75;74.31;100310.28;5123035;28;20036;-76
2021/04/18 00:03:23;;;;;;;45.58;26.52;;;;;;;6.36;75.58;100281.03;5123173;28;20035;-72
2021/04/18 00:05:48;;;;;;;47.05;27.25;;;;;;;6.50;76.22;100306.97;5120126;28;20036;-71
2021/04/18 00:08:14;;;;;;;43.17;24.80;;;;;;;6.49;76.06;100299.94;5101633;28;20047;-74
2021/04/18 00:10:40;;;;;;;44.83;25.63;;;;;;;6.39;75.74;100272.13;5122122;28;20514;-72
2021/04/18 00:13:07;;;;;;;45.97;27.25;;;;;;;6.42;76.02;100290.53;5117490;28;20031;-72
2021/04/18 00:15:34;;;;;;;42.05;25.70;;;;;;;6.41;75.96;100302.06;5080359;28;20130;-72
2021/04/18 00:18:00;;;;;;;43.75;26.80;;;;;;;6.29;76.09;100276.94;5115602;28;20039;-72
2021/04/18 00:20:26;;;;;;;48.45;27.38;;;;;;;6.27;75.96;100299.97;5097239;28;20388;-72
2021/04/18 00:22:51;;;;;;;44.75;26.90;;;;;;;6.18;76.13;100295.09;5097339;28;20036;-73
2021/04/18 00:25:18;;;;;;;47.90;27.08;;;;;;;6.23;75.67;100293.94;5097040;28;20122;-73
2021/04/18 00:27:45;;;;;;;44.95;26.48;;;;;;;6.22;75.41;100294.88;5097074;28;20089;-75
2021/04/18 00:30:15;;;;;;;44.67;26.38;;;;;;;6.12;75.71;100297.97;5115218;28;20037;-75
2021/04/18 00:32:40;;;;;;;44.63;26.98;;;;;;;6.06;76.27;100291.13;5115794;28;20034;-74
2021/04/18 00:35:07;;;;;;;46.10;27.80;;;;;;;5.99;76.46;100294.97;5080125;28;20384;-73
2021/04/18 00:37:33;;;;;;;48.08;27.73;;;;;;;5.86;77.02;100294.56;5096747;28;20050;-70
2021/04/18 00:39:59;;;;;;;43.78;26.60;;;;;;;6.05;76.40;100293.84;5080350;28;20028;-71
2021/04/18 00:42:24;;;;;;;47.55;26.15;;;;;;;6.07;76.60;100286.69;5114781;28;20388;-71
2021/04/18 00:44:50;;;;;;;44.75;27.27;;;;;;;6.17;76.51;100293.34;5097021;28;20035;-70
2021/04/18 00:47:16;;;;;;;43.63;26.35;;;;;;;6.06;76.18;100272.59;5114887;28;20066;-71
2021/04/18 00:49:46;;;;;;;41.28;26.25;;;;;;;6.23;76.72;100295.75;5096749;28;20036;-71
2021/04/18 00:52:12;;;;;;;43.67;26.05;;;;;;;6.24;76.58;100300.13;5096660;28;20027;-70
2021/04/18 00:54:38;;;;;;;41.85;25.40;;;;;;;5.95;76.30;100229.81;5115314;28;20061;-70
2021/04/18 00:57:06;;;;;;;39.70;24.05;;;;;;;6.38;76.33;100288.97;5114454;28;20066;-70
2021/04/18 00:59:32;;;;;;;42.60;26.95;;;;;;;6.25;76.68;100275.34;5115308;28;20122;-72
2021/04/18 01:01:57;;;;;;;42.85;25.55;;;;;;;6.10;77.45;100255.69;5096537;28;20127;-72
2021/04/18 01:04:23;;;;;;;43.47;26.23;;;;;;;6.05;77.90;100270.88;5114257;28;20037;-71
2021/04/18 01:06:48;;;;;;;41.20;26.75;;;;;;;6.07;78.56;100284.91;5114940;28;20039;-71
2021/04/18 01:09:14;;;;;;;41.15;26.10;;;;;;;6.18;78.44;100280.06;5114782;28;20032;-70
2021/04/18 01:11:39;;;;;;;38.17;25.35;;;;;;;6.18;78.58;100274.75;5096958;28;20118;-70
2021/04/18 01:14:05;;;;;;;40.20;25.90;;;;;;;6.27;78.16;100279.69;5079201;28;20035;-71
2021/04/18 01:16:30;;;;;;;40.85;25.98;;;;;;;6.19;78.54;100271.19;5114678;28;20073;-71
2021/04/18 01:18:56;;;;;;;37.95;24.65;;;;;;;6.21;78.45;100250.78;5096408;28;20077;-71
2021/04/18 01:21:21;;;;;;;39.28;24.15;;;;;;;6.41;77.46;100267.63;5096024;28;20042;-70
2021/04/18 01:23:47;;;;;;;40.47;24.65;;;;;;;6.48;77.06;100275.25;5079365;28;20430;-71
2021/04/18 01:26:14;;;;;;;40.50;24.27;;;;;;;6.50;76.84;100269.88;5095818;28;20070;-71
2021/04/18 01:28:39;;;;;;;39.58;25.50;;;;;;;6.40;76.54;100248.22;5114337;28;20460;-71
2021/04/18 01:31:05;;;;;;;40.22;25.92;;;;;;;6.47;76.86;100267.38;5096171;28;20036;-73
2021/04/18 01:33:32;;;;;;;44.88;27.73;;;;;;;6.28;77.10;100241.66;5113916;28;20031;-75
2021/04/18 01:35:59;;;;;;;39.13;24.90;;;;;;;6.29;77.24;100239.88;5114003;28;20036;-75
2021/04/18 01:38:24;;;;;;;40.25;25.30;;;;;;;6.32;77.55;100251.19;5113515;28;20084;-73
2021/04/18 01:40:50;;;;;;;43.45;25.80;;;;;;;6.18;78.16;100258.00;5114187;28;20035;-73
2021/04/18 01:43:18;;;;;;;40.22;25.75;;;;;;;6.15;78.25;100261.63;5113914;28;20538;-72
2021/04/18 01:45:47;;;;;;;42.20;25.83;;;;;;;6.06;78.92;100254.06;5113911;28;20063;-72
2021/04/18 01:48:12;;;;;;;38.95;24.48;;;;;;;6.17;78.60;100262.41;5113765;28;20035;-73
2021/04/18 01:50:40;;;;;;;39.70;25.70;;;;;;;6.15;78.60;100258.97;5113747;28;20031;-76
2021/04/18 01:53:06;;;;;;;41.78;25.85;;;;;;;6.03;79.02;100255.06;5095526;28;20460;-76
2021/04/18 01:55:32;;;;;;;41.20;25.13;;;;;;;6.13;79.13;100260.84;5095656;28;20050;-74
2021/04/18 01:57:57;;;;;;;40.63;24.25;;;;;;;6.12;78.82;100253.81;5095836;28;20523;-73
2021/04/18 02:00:23;;;;;;;42.78;24.70;;;;;;;6.09;79.05;100264.53;5095401;28;20036;-70
2021/04/18 02:02:48;;;;;;;44.00;26.17;;;;;;;6.01;79.34;100267.50;5078693;28;20424;-69
2021/04/18 02:05:15;;;;;;;39.15;25.23;;;;;;;5.83;79.39;100248.84;5095500;28;20031;-70
2021/04/18 02:07:41;;;;;;;42.90;25.63;;;;;;;5.82;79.73;100234.72;5095557;28;20388;-70
2021/04/18 02:10:08;;;;;;;42.75;25.77;;;;;;;5.79;80.42;100255.16;5113756;28;20031;-76
2021/04/18 02:12:34;;;;;;;42.78;24.65;;;;;;;5.95;79.80;100257.16;5113448;28;20388;-74
2021/04/18 02:14:59;;;;;;;45.83;25.33;;;;;;;5.68;80.47;100226.47;5078750;28;20045;-74
2021/04/18 02:17:25;;;;;;;44.17;25.27;;;;;;;5.75;79.96;100243.84;5113705;28;20889;-75
2021/04/18 02:19:50;;;;;;;40.70;24.30;;;;;;;5.74;80.52;100263.28;5113803;28;20070;-72
2021/04/18 02:22:16;;;;;;;43.47;26.13;;;;;;;5.85;80.10;100266.38;5113258;28;20043;-73
2021/04/18 02:24:41;;;;;;;44.28;25.67;;;;;;;5.51;80.50;100215.72;5078735;28;20031;-70
2021/04/18 02:27:07;;;;;;;42.28;25.58;;;;;;;5.84;80.03;100258.50;5113301;28;20392;-77
2021/04/18 02:29:33;;;;;;;41.17;25.63;;;;;;;5.75;80.26;100250.00;5113476;28;20452;-69
2021/04/18 02:31:58;;;;;;;44.58;26.20;;;;;;;5.53;80.97;100241.19;5095400;28;20426;-69
2021/04/18 02:34:24;;;;;;;43.22;25.27;;;;;;;5.53;81.35;100257.06;5094904;28;20452;-71
2021/04/18 02:36:49;;;;;;;41.00;25.10;;;;;;;5.30;81.62;100222.72;5095433;28;20063;-70
2021/04/18 02:39:15;;;;;;;38.53;24.30;;;;;;;5.63;80.92;100254.94;5078457;28;20055;-70
2021/04/18 02:41:40;;;;;;;40.60;25.85;;;;;;;5.48;81.12;100235.22;5078182;28;20392;-69
2021/04/18 02:44:06;;;;;;;40.53;25.35;;;;;;;5.60;81.42;100261.22;5115327;28;20043;-70
2021/04/18 02:46:31;;;;;;;44.75;26.15;;;;;;;5.50;81.74;100249.28;5116857;28;20031;-70
2021/04/18 02:48:57;;;;;;;43.13;25.55;;;;;;;5.57;81.54;100261.31;5117588;28;20111;-70
2021/04/18 02:51:22;;;;;;;45.60;26.08;;;;;;;5.64;80.95;100259.28;5099021;28;20047;-70
2021/04/18 02:53:48;;;;;;;39.42;25.52;;;;;;;5.47;81.83;100246.72;5099769;28;20039;-71
2021/04/18 02:56:13;;;;;;;46.50;26.08;;;;;;;5.33;82.68;100243.75;5098939;28;20078;-72
2021/04/18 02:58:39;;;;;;;41.80;24.75;;;;;;;5.50;81.78;100246.63;5117057;28;20049;-72
2021/04/18 03:01:04;;;;;;;40.42;24.88;;;;;;;5.47;81.68;100237.00;5098573;28;20073;-69
2021/04/18 03:03:30;;;;;;;42.30;24.80;;;;;;;5.41;82.45;100245.19;5081789;28;20040;-70
2021/04/18 03:05:55;;;;;;;39.97;23.75;;;;;;;5.11;81.73;100162.59;5082180;28;20039;-70
2021/04/18 03:08:21;;;;;;;41.88;24.63;;;;;;;5.48;82.11;100243.16;5081658;28;20452;-70
2021/04/18 03:10:46;;;;;;;42.75;25.13;;;;;;;5.39;82.40;100241.72;5117115;28;20039;-72
2021/04/18 03:13:12;;;;;;;40.90;24.77;;;;;;;5.36;82.11;100219.84;5116601;28;20031;-72
2021/04/18 03:15:37;;;;;;;40.70;24.20;;;;;;;5.16;81.89;100165.94;5098934;28;20047;-73
2021/04/18 03:18:03;;;;;;;42.03;25.58;;;;;;;5.57;81.46;100229.56;5116795;28;20109;-72
2021/04/18 03:20:29;;;;;;;39.15;24.73;;;;;;;5.61;81.66;100233.81;5098567;28;20071;-73
2021/04/18 03:22:55;;;;;;;43.30;24.40;;;;;;;5.67;81.11;100230.91;5098817;28;20054;-73
2021/04/18 03:25:21;;;;;;;38.90;23.48;;;;;;;5.71;80.94;100226.38;5116375;28;20035;-73
2021/04/18 03:27:47;;;;;;;40.13;23.60;;;;;;;5.73;81.03;100229.81;5098809;28;20037;-73
2021/04/18 03:30:13;;;;;;;39.97;24.35;;;;;;;5.69;81.05;100231.75;5116796;28;20044;-74
2021/04/18 03:32:38;;;;;;;36.85;23.52;;;;;;;5.78;80.83;100232.25;5098527;28;20040;-72
2021/04/18 03:35:05;;;;;;;37.05;23.20;;;;;;;5.85;80.59;100223.16;5116742;28;20031;-70
2021/04/18 03:37:30;;;;;;;39.47;23.15;;;;;;;5.84;80.42;100226.72;5116154;28;20154;-69
2021/04/18 03:39:56;;;;;;;37.05;21.63;;;;;;;5.59;79.97;100169.50;5098359;28;20122;-69
2021/04/18 03:42:21;;;;;;;37.05;23.02;;;;;;;5.94;79.97;100233.41;5116186;28;20070;-69
2021/04/18 03:44:47;;;;;;;41.97;23.52;;;;;;;5.92;80.26;100230.81;5098277;28;20096;-68
2021/04/18 03:47:12;;;;;;;37.17;22.80;;;;;;;5.93;80.06;100221.09;5097880;28;20436;-70
2021/04/18 03:49:38;;;;;;;36.20;21.60;;;;;;;5.91;79.91;100233.53;5098482;28;20059;-69
2021/04/18 03:52:03;;;;;;;36.08;21.70;;;;;;;5.89;80.19;100240.66;5098090;28;20089;-69
2021/04/18 03:54:29;;;;;;;38.25;23.30;;;;;;;5.76;80.46;100237.63;5115878;28;20071;-69
2021/04/18 03:56:54;;;;;;;35.50;22.10;;;;;;;5.84;80.44;100232.88;5115434;28;20031;-71
2021/04/18 03:59:20;;;;;;;38.17;21.67;;;;;;;5.92;79.59;100235.25;5097502;28;20039;-71
2021/04/18 04:01:46;;;;;;;35.45;21.63;;;;;;;5.89;79.86;100241.50;5115756;28;20036;-71
2021/04/18 04:04:11;;;;;;;33.30;21.80;;;;;;;5.79;80.03;100239.28;5116077;28;20036;-71
2021/04/18 04:06:37;;;;;;;36.30;21.90;;;;;;;5.85;80.12;100246.97;5115789;28;20369;-71
2021/04/18 04:09:03;;;;;;;38.75;23.52;;;;;;;5.80;80.59;100246.31;5115737;28;20028;-70
2021/04/18 04:11:29;;;;;;;34.90;21.75;;;;;;;5.94;79.89;100246.63;5115770;28;20050;-70
2021/04/18 04:13:54;;;;;;;37.35;23.08;;;;;;;5.94;79.90;100243.97;5115801;28;20027;-71
2021/04/18 04:16:20;;;;;;;34.45;22.25;;;;;;;5.92;79.89;100235.25;5097174;28;20409;-72
2021/04/18 04:18:45;;;;;;;33.47;21.33;;;;;;;5.99;79.57;100236.72;5097831;28;20028;-71
2021/04/18 04:21:11;;;;;;;37.80;22.30;;;;;;;5.97;79.90;100249.16;5097336;28;20023;-71
2021/04/18 04:23:37;;;;;;;33.00;22.75;;;;;;;6.01;80.00;100246.31;5115401;28;20035;-73
2021/04/18 04:26:05;;;;;;;35.13;22.85;;;;;;;6.08;79.92;100249.59;5115418;28;20115;-72
2021/04/18 04:28:31;;;;;;;37.70;23.17;;;;;;;5.95;79.95;100227.16;5115032;28;20040;-72
2021/04/18 04:30:57;;;;;;;34.95;20.75;;;;;;;5.90;79.26;100179.72;5115378;28;20042;-72
2021/04/18 04:33:22;;;;;;;37.13;22.33;;;;;;;6.20;79.58;100246.41;5097111;28;20032;-72
2021/04/18 04:35:48;;;;;;;36.17;23.00;;;;;;;6.07;80.53;100247.84;5080289;28;20088;-71
2021/04/18 04:38:16;;;;;;;34.85;22.02;;;;;;;6.17;80.31;100248.31;5115423;28;20365;-70
2021/04/18 04:40:42;;;;;;;34.65;23.23;;;;;;;6.16;80.22;100244.81;5114897;28;20098;-71
2021/04/18 04:43:08;;;;;;;37.10;21.58;;;;;;;6.31;79.72;100249.47;5097017;28;20031;-72
2021/04/18 04:45:33;;;;;;;33.63;21.02;;;;;;;6.21;79.73;100221.66;5096626;28;20330;-72
2021/04/18 04:47:59;;;;;;;37.75;22.73;;;;;;;6.22;80.26;100241.91;5115189;28;20106;-72
2021/04/18 04:50:25;;;;;;;36.50;21.98;;;;;;;6.29;80.24;100253.13;5114656;28;20028;-71
2021/04/18 04:52:50;;;;;;;36.67;21.88;;;;;;;6.24;80.38;100234.75;5096682;28;20038;-72
2021/04/18 04:55:16;;;;;;;35.33;22.42;;;;;;;6.36;80.06;100245.75;5080050;28;20031;-78
2021/04/18 04:57:42;;;;;;;33.55;22.10;;;;;;;6.34;80.10;100242.31;5114651;28;20034;-71
2021/04/18 05:00:08;;;;;;;31.92;20.95;;;;;;;6.41;79.76;100235.81;5115042;28;20122;-70
2021/04/18 05:02:34;;;;;;;36.13;21.73;;;;;;;6.55;79.35;100246.66;5114752;28;20032;-71
2021/04/18 05:04:59;;;;;;;36.88;22.45;;;;;;;6.30;79.59;100210.66;5114583;28;20088;-75
2021/04/18 05:07:25;;;;;;;33.78;21.42;;;;;;;6.53;79.32;100243.22;5113212;28;20111;-75
2021/04/18 05:09:50;;;;;;;34.88;22.00;;;;;;;6.53;79.10;100237.94;5114845;28;20585;-73
2021/04/18 05:12:17;;;;;;;34.42;21.33;;;;;;;6.54;78.36;100214.00;5114719;28;20032;-73
2021/04/18 05:14:42;;;;;;;33.65;20.58;;;;;;;6.66;77.83;100212.63;5079249;28;20091;-71
2021/04/18 05:17:08;;;;;;;33.65;21.80;;;;;;;6.71;78.15;100242.44;5095984;28;20055;-73
2021/04/18 05:19:33;;;;;;;34.60;21.77;;;;;;;6.55;78.31;100213.06;5095945;28;20063;-73
2021/04/18 05:21:59;;;;;;;32.45;20.80;;;;;;;6.77;78.71;100236.88;5096027;28;20023;-72
2021/04/18 05:24:25;;;;;;;35.08;22.00;;;;;;;6.63;78.28;100217.19;5096056;28;20119;-70
2021/04/18 05:26:50;;;;;;;34.90;22.10;;;;;;;6.73;78.47;100239.69;5114842;28;20036;-72
2021/04/18 05:29:16;;;;;;;40.17;22.83;;;;;;;6.70;78.43;100235.41;5095973;28;20476;-71
2021/04/18 05:31:41;;;;;;;36.25;22.77;;;;;;;6.83;78.23;100243.66;5114200;28;20494;-72
2021/04/18 05:34:07;;;;;;;36.00;22.33;;;;;;;6.95;77.67;100250.19;5114312;28;20108;-73
2021/04/18 05:36:32;;;;;;;37.15;22.98;;;;;;;6.96;76.94;100236.03;5078821;28;20024;-71
2021/04/18 05:38:58;;;;;;;35.95;22.73;;;;;;;7.00;76.46;100242.91;5113898;28;20052;-72
2021/04/18 05:41:23;;;;;;;36.63;22.48;;;;;;;6.92;76.05;100224.69;5113798;28;20031;-72
2021/04/18 05:43:49;;;;;;;35.22;22.98;;;;;;;6.98;76.48;100242.13;5095798;28;20472;-71
2021/04/18 05:46:16;;;;;;;36.03;23.25;;;;;;;7.07;76.35;100242.56;5114181;28;20067;-70
2021/04/18 05:48:41;;;;;;;37.47;24.42;;;;;;;7.19;75.57;100238.47;5095427;28;20501;-71
2021/04/18 05:51:07;;;;;;;38.92;23.00;;;;;;;7.25;75.29;100238.22;5095934;28;20067;-73
2021/04/18 05:53:33;;;;;;;37.35;24.77;;;;;;;7.21;75.53;100241.91;5095673;28;20055;-71
2021/04/18 05:55:58;;;;;;;38.38;24.35;;;;;;;7.04;75.53;100217.94;5113901;28;20470;-72
2021/04/18 05:58:24;;;;;;;36.20;22.52;;;;;;;7.31;75.19;100226.44;5095591;28;20038;-71
2021/04/18 06:00:49;;;;;;;35.55;22.70;;;;;;;7.43;74.73;100247.97;5113637;28;20062;-75
2021/04/18 06:03:15;;;;;;;34.97;23.10;;;;;;;7.33;75.65;100249.28;5113942;28;20032;-73
2021/04/18 06:05:42;;;;;;;39.95;23.65;;;;;;;7.29;75.32;100226.50;5113253;28;20057;-71
2021/04/18 06:08:07;;;;;;;34.30;21.48;;;;;;;7.41;74.63;100217.09;5114007;28;20028;-71
2021/04/18 06:10:33;;;;;;;37.72;23.35;;;;;;;7.51;75.35;100249.38;5095199;28;20027;-67
2021/04/18 06:12:58;;;;;;;32.47;21.90;;;;;;;7.58;74.56;100224.25;5113709;28;20040;-71
2021/04/18 06:15:25;;;;;;;36.17;21.80;;;;;;;7.79;74.40;100248.91;5095221;28;20161;-70
2021/04/18 06:17:51;;;;;;;31.73;20.73;;;;;;;7.69;73.40;100228.09;5078710;28;20404;-70
2021/04/18 06:20:16;;;;;;;34.42;21.58;;;;;;;7.78;73.48;100232.13;5113367;28;20028;-70
2021/04/18 06:22:42;;;;;;;32.72;20.75;;;;;;;7.74;72.67;100193.38;5113154;28;20027;-70
2021/04/18 06:25:08;;;;;;;31.55;20.27;;;;;;;7.90;72.43;100228.84;5113918;28;20040;-81
2021/04/18 06:27:33;;;;;;;33.13;19.75;;;;;;;8.28;72.05;100239.34;5111571;28;20039;-74
2021/04/18 06:29:59;;;;;;;33.67;20.25;;;;;;;8.37;70.68;100232.75;5085347;28;20058;-76
2021/04/18 06:32:25;;;;;;;34.80;21.60;;;;;;;8.49;70.67;100235.66;5081049;28;20082;-77
2021/04/18 06:34:51;;;;;;;33.35;21.10;;;;;;;8.67;70.21;100240.91;5083202;28;20039;-75
2021/04/18 06:37:17;;;;;;;33.20;20.52;;;;;;;8.62;69.96;100222.56;5082909;28;20027;-70
2021/04/18 06:39:42;;;;;;;31.65;19.83;;;;;;;8.79;69.60;100240.28;5103268;28;20028;-68
2021/04/18 06:42:14;;;;;;;30.23;19.42;;;;;;;8.65;69.78;100216.22;5104157;28;20027;-70
2021/04/18 06:44:39;;;;;;;29.90;20.02;;;;;;;8.90;69.43;100229.94;5093339;28;20038;-70
2021/04/18 06:47:05;;;;;;;31.98;19.08;;;;;;;8.99;68.96;100242.75;5078642;28;20130;-71
2021/04/18 06:49:30;;;;;;;29.33;19.13;;;;;;;9.05;68.82;100239.75;5113630;28;20460;-69
2021/04/18 06:51:59;;;;;;;33.45;20.30;;;;;;;9.05;68.21;100221.13;5094952;28;20035;-71
2021/04/18 06:54:24;;;;;;;30.33;19.23;;;;;;;9.14;67.83;100244.56;5095079;28;20465;-77
2021/04/18 06:56:50;;;;;;;26.10;17.83;;;;;;;9.16;66.98;100236.50;5112782;28;20046;-72
2021/04/18 06:59:15;;;;;;;25.60;17.55;;;;;;;9.12;66.71;100241.13;5113885;28;20392;-74
2021/04/18 07:01:41;;;;;;;28.40;17.42;;;;;;;8.94;66.78;100239.47;5094757;28;20456;-72
2021/04/18 07:04:21;;;;;;;25.92;16.67;;;;;;;9.19;66.09;100247.00;5094638;28;20106;-73
2021/04/18 07:06:52;;;;;;;26.30;17.55;;;;;;;9.24;65.90;100244.06;5106833;28;20062;-75
2021/04/18 07:09:22;;;;;;;27.05;17.10;;;;;;;9.26;65.85;100210.22;5102113;28;20024;-75
2021/04/18 07:11:50;;;;;;;27.40;16.63;;;;;;;9.26;65.42;100205.75;5089019;28;20110;-75
2021/04/18 07:14:24;;;;;;;27.70;17.35;;;;;;;9.29;66.26;100220.72;5104552;28;20027;-73
2021/04/18 07:16:52;;;;;;;27.30;16.88;;;;;;;9.42;65.92;100235.06;5101911;28;20473;-71
2021/04/18 07:19:26;;;;;;;25.27;16.83;;;;;;;9.24;65.98;100190.84;5078144;28;20040;-79
2021/04/18 07:21:57;;;;;;;27.45;16.50;;;;;;;9.53;65.70;100224.66;5094864;28;20035;-70
2021/04/18 07:24:24;;;;;;;25.00;16.77;;;;;;;9.62;65.08;100213.50;5095219;28;20391;-74
2021/04/18 07:27:04;;;;;;;24.80;15.30;;;;;;;9.56;65.59;100221.00;5112704;28;20032;-76
2021/04/18 07:29:34;;;;;;;25.58;16.27;;;;;;;9.59;65.08;100234.13;5084902;28;20032;-75
2021/04/18 07:32:17;;;;;;;26.75;17.70;;;;;;;9.59;65.31;100228.81;5095524;28;20050;-75
2021/04/18 07:34:42;;;;;;;28.38;17.52;;;;;;;9.71;64.85;100228.09;5095290;28;20020;-75
2021/04/18 07:37:10;;;;;;;28.08;16.92;;;;;;;9.59;65.01;100227.00;5076745;28;20036;-76
2021/04/18 07:39:47;;;;;;;28.67;17.77;;;;;;;9.85;65.39;100235.31;5094870;28;20496;-74
2021/04/18 07:42:31;;;;;;;29.13;17.33;;;;;;;9.81;64.78;100239.94;5090737;28;20024;-75
2021/04/18 07:44:57;;;;;;;;;;;;;;;9.82;64.89;100236.34;5077350;28;20097;-73
2021/04/18 07:47:24;;;;;;;25.77;16.23;;;;;;;9.60;65.08;100210.06;5076380;28;19912;-74
2021/04/18 07:49:51;;;;;;;30.75;16.75;;;;;;;9.94;64.73;100221.44;5076427;28;20452;-70
2021/04/18 07:52:18;;;;;;;28.60;17.48;;;;;;;9.84;65.45;100214.94;5060200;28;20085;-74
2021/04/18 07:54:44;;;;;;;28.73;18.77;;;;;;;9.79;65.91;100219.69;5095044;28;20039;-74
2021/04/18 07:57:10;;;;;;;28.13;18.60;;;;;;;10.06;65.16;100239.41;5075307;28;20042;-75
2021/04/18 07:59:37;;;;;;;28.33;17.73;;;;;;;10.18;64.57;100236.00;5072076;28;20028;-71
2021/04/18 08:02:03;;;;;;;29.55;17.67;;;;;;;10.12;64.86;100231.03;5094825;28;20034;-73
2021/04/18 08:04:30;;;;;;;27.70;17.70;;;;;;;9.99;65.19;100238.03;5076868;28;20114;-73
2021/04/18 08:06:55;;;;;;;28.98;18.75;;;;;;;10.06;65.00;100241.22;5076717;28;20036;-71
2021/04/18 08:09:23;;;;;;;30.02;17.98;;;;;;;10.06;64.39;100239.41;5094305;28;20040;-76
2021/04/18 08:12:14;;;;;;;25.27;17.52;;;;;;;9.86;65.42;100237.91;5076362;28;20124;-72
2021/04/18 08:14:42;;;;;;;26.00;16.83;;;;;;;10.12;64.25;100239.03;5094500;28;20468;-76
2021/04/18 08:17:18;;;;;;;25.75;17.13;;;;;;;10.14;63.75;100221.16;5094140;28;20138;-71
2021/04/18 08:19:56;;;;;;;27.63;16.52;;;;;;;10.19;63.21;100213.75;5059026;28;20043;-72
2021/04/18 08:22:22;;;;;;;25.95;16.77;;;;;;;10.31;62.30;100234.38;5094096;28;20024;-70
2021/04/18 08:25:04;;;;;;;25.67;16.45;;;;;;;10.37;61.96;100229.63;5076133;28;20020;-73
2021/04/18 08:27:30;;;;;;;26.48;16.38;;;;;;;10.40;63.18;100229.44;5090453;28;20497;-70
2021/04/18 08:30:05;;;;;;;27.95;16.83;;;;;;;10.34;62.67;100206.69;5073786;28;20101;-70
2021/04/18 08:32:48;;;;;;;24.95;16.27;;;;;;;10.45;62.00;100228.22;5093036;28;20024;-72
2021/04/18 08:35:17;;;;;;;24.10;16.17;;;;;;;10.47;62.14;100234.31;5093982;28;20050;-72
2021/04/18 08:37:42;;;;;;;23.15;14.40;;;;;;;10.25;60.92;100231.22;5093781;28;20100;-71
2021/04/18 08:40:08;;;;;;;22.48;14.25;;;;;;;10.29;61.17;100230.94;5075616;28;20028;-71
2021/04/18 08:42:35;;;;;;;22.83;14.80;;;;;;;10.34;61.09;100235.16;5075937;28;20085;-71
2021/04/18 08:45:01;;;;;;;23.30;14.60;;;;;;;10.16;60.74;100197.94;5075677;28;20044;-72
2021/04/18 08:47:28;;;;;;;26.13;15.43;;;;;;;10.30;61.41;100216.66;5077730;28;20546;-74
2021/04/18 08:50:04;;;;;;;23.42;14.35;;;;;;;10.45;61.29;100227.38;5114413;28;20042;-76
2021/04/18 08:52:32;;;;;;;23.42;14.45;;;;;;;10.46;60.75;100232.59;5075478;28;20058;-74
2021/04/18 08:55:03;;;;;;;23.13;14.98;;;;;;;10.43;61.07;100226.59;5093528;28;20132;-74
2021/04/18 08:57:32;;;;;;;23.08;14.48;;;;;;;10.41;61.17;100217.81;5090019;28;20035;-70
2021/04/18 08:59:59;;;;;;;27.98;14.60;;;;;;;10.50;60.55;100218.13;5055213;28;20500;-72
2021/04/18 09:02:26;;;;;;;23.52;13.93;;;;;;;10.53;60.82;100227.78;5042800;28;20044;-70
2021/04/18 09:04:56;;;;;;;24.70;15.27;;;;;;;10.38;61.21;100212.69;5076212;28;20645;-70
2021/04/18 09:07:25;;;;;;;20.73;13.55;;;;;;;10.56;60.34;100223.09;5091828;28;20115;-69
2021/04/18 09:09:52;;;;;;;25.10;14.70;;;;;;;10.83;60.28;100231.22;5086258;28;20389;-71
2021/04/18 09:12:18;;;;;;;24.88;15.50;;;;;;;10.81;60.53;100232.28;5093528;28;20047;-71
2021/04/18 09:14:47;;;;;;;20.55;13.10;;;;;;;10.90;58.70;100218.34;5100702;28;20362;-73
2021/04/18 09:17:24;;;;;;;21.20;13.77;;;;;;;11.03;58.66;100210.47;5092404;28;20459;-72
2021/04/18 09:20:00;;;;;;;20.00;13.07;;;;;;;11.30;58.55;100219.41;5091712;28;20039;-71
2021/04/18 09:22:32;;;;;;;21.65;14.02;;;;;;;11.25;58.78;100226.84;5092785;28;20032;-72
2021/04/18 09:25:18;;;;;;;20.05;12.07;;;;;;;11.53;55.80;100227.75;5074780;28;20493;-72
2021/04/18 09:27:44;;;;;;;16.38;10.40;;;;;;;11.76;53.99;100225.28;5092577;28;20032;-70
2021/04/18 09:30:16;;;;;;;17.63;10.95;;;;;;;11.70;53.64;100211.47;5092175;28;20077;-69
2021/04/18 09:32:47;;;;;;;16.55;11.05;;;;;;;11.81;53.51;100203.66;5092659;28;20036;-70
2021/04/18 09:35:15;;;;;;;17.48;10.93;;;;;;;11.96;53.70;100232.00;5092322;28;20474;-73
2021/04/18 09:37:44;;;;;;;17.20;10.88;;;;;;;12.17;53.75;100218.19;5084065;28;20120;-72
2021/04/18 09:40:15;;;;;;;17.40;11.68;;;;;;;12.00;53.75;100216.66;5094961;28;20039;-72
2021/04/18 09:42:44;;;;;;;21.10;12.95;;;;;;;11.99;54.28;100207.78;5074504;28;20036;-70
2021/04/18 09:45:14;;;;;;;18.50;12.07;;;;;;;12.07;53.21;100204.59;5057578;28;20062;-71
2021/04/18 09:47:42;;;;;;;21.25;12.10;;;;;;;12.08;53.00;100217.00;5100045;28;20028;-68
2021/04/18 09:50:34;;;;;;;20.35;12.00;;;;;;;12.13;53.20;100208.66;5075388;28;20377;-74
2021/04/18 09:53:22;;;;;;;19.95;11.75;;;;;;;11.85;53.23;100213.16;5092224;28;20032;-76
2021/04/18 09:56:08;;;;;;;18.98;12.23;;;;;;;11.37;53.77;100164.63;5093138;28;20032;-71
2021/04/18 09:58:36;;;;;;;18.77;12.13;;;;;;;11.66;54.14;100199.25;5057435;28;20496;-70
2021/04/18 10:01:04;;;;;;;21.95;13.25;;;;;;;11.70;54.27;100196.31;5074379;28;20031;-72
2021/04/18 10:03:41;;;;;;;20.05;12.20;;;;;;;11.83;53.63;100212.41;5074228;28;20043;-71
2021/04/18 10:06:08;;;;;;;17.40;11.45;;;;;;;11.87;54.21;100219.28;5074807;28;20337;-81
2021/04/18 10:08:36;;;;;;;20.05;12.55;;;;;;;11.68;53.77;100213.41;5086378;28;20553;-71
2021/04/18 10:11:08;;;;;;;22.42;12.68;;;;;;;11.78;54.21;100214.50;5092111;28;20028;-73
2021/04/18 10:13:55;;;;;;;19.65;11.60;;;;;;;11.72;54.27;100222.91;5092498;28;20154;-72
2021/04/18 10:16:43;;;;;;;18.60;12.43;;;;;;;11.29;55.56;100217.69;5081238;28;20044;-71
2021/04/18 10:19:21;;;;;;;20.33;11.73;;;;;;;11.23;56.60;100214.53;5079180;28;20032;-74
2021/04/18 10:22:02;;;;;;;21.75;12.77;;;;;;;11.28;56.25;100225.78;5093458;28;20047;-72
2021/04/18 10:24:32;;;;;;;18.90;12.25;;;;;;;11.37;56.61;100220.69;5093937;28;20115;-70
2021/04/18 10:27:02;;;;;;;20.42;12.73;;;;;;;11.32;56.32;100196.13;5094121;28;20515;-72
2021/04/18 10:29:29;;;;;;;20.35;13.35;;;;;;;11.45;56.16;100218.41;5069110;28;20528;-72
2021/04/18 10:31:55;;;;;;;21.08;13.77;;;;;;;11.47;56.45;100215.63;5056433;28;20047;-76
2021/04/18 10:34:21;;;;;;;19.83;12.77;;;;;;;11.55;56.29;100216.00;5073728;28;20473;-70
2021/04/18 10:36:47;;;;;;;19.55;12.38;;;;;;;11.35;56.08;100211.94;5073037;28;20046;-72
2021/04/18 10:39:14;;;;;;;19.83;12.80;;;;;;;11.54;55.95;100205.41;5084316;28;20062;-71
2021/04/18 10:41:43;;;;;;;17.52;11.35;;;;;;;11.59;55.64;100204.16;5074025;28;20051;-66
2021/04/18 10:44:09;;;;;;;18.90;11.48;;;;;;;11.45;55.45;100202.38;5075362;28;20031;-71
2021/04/18 10:46:35;;;;;;;14.13;9.27;;;;;;;11.55;54.60;100207.13;5073885;28;20388;-72
2021/04/18 10:49:00;;;;;;;13.77;9.13;;;;;;;11.44;54.74;100187.31;5091850;28;20039;-73
2021/04/18 10:51:25;;;;;;;17.40;9.38;;;;;;;11.32;55.36;100212.16;5091844;28;20047;-71
2021/04/18 10:53:51;;;;;;;17.75;9.55;;;;;;;11.31;55.62;100205.09;5056999;28;20043;-71
2021/04/18 10:56:16;;;;;;;15.70;9.50;;;;;;;11.57;54.65;100205.22;5091630;28;20039;-71
2021/04/18 10:58:42;;;;;;;13.57;9.00;;;;;;;11.88;54.14;100212.97;5068839;28;20092;-71
2021/04/18 11:01:07;;;;;;;14.60;8.90;;;;;;;11.93;53.99;100204.66;5053373;28;20048;-72
2021/04/18 11:03:33;;;;;;;14.10;8.88;;;;;;;11.89;54.36;100204.00;5086643;28;20028;-69
2021/04/18 11:05:58;;;;;;;13.48;9.48;;;;;;;11.88;53.92;100210.31;5101192;28;20464;-69
2021/04/18 11:08:24;;;;;;;13.48;8.52;;;;;;;11.80;55.11;100206.44;5066594;28;20481;-70
2021/04/18 11:10:50;;;;;;;15.00;9.23;;;;;;;11.28;56.20;100137.66;5077359;28;20032;-67
2021/04/18 11:13:16;;;;;;;12.65;8.45;;;;;;;11.93;56.49;100189.47;5095745;28;20036;-67
2021/04/18 11:15:41;;;;;;;13.77;8.85;;;;;;;12.21;56.24;100203.66;5077199;28;20040;-71